EGGH weather

CLOSED Heston Aerodrome
London, England, United Kingdom

Public forecast

Using degrees Celsius for public forecast. Weather courtesy of forecast.io.

Closest aviation weather report (METAR) to Heston Aerodrome

Closest report is London Heathrow Airport, 2.8 nm (5.3 km) WSW. Retrieved 2019/10/22 15:20 UTC (52 minutes ago):

EGLL 221520Z AUTO 22007KT 180V250 9999 NCD 15/05 Q1023 NOSIG

Closest aviation forecast (TAF) to Heston Aerodrome

Closest forecast is London Heathrow Airport, 2.8 nm (5.3 km) WSW. Retrieved 2019/10/22 12:00 UTC (4 hours ago):

TAF EGLL 221103Z 2212/2318 24004KT 9999 FEW045 BECMG 2222/2301 7000 TEMPO 2300/2308 4000 BR BECMG 2308/2311 08010KT 9999 PROB30 TEMPO 2309/2316 7000 -RA BKN014 PROB30 TEMPO 2316/2318 7000 SHRA BKN007